Oak Park, California
Current Conditions -  °F | °C
As of 10:51 AM on Friday 21 Nov 2014 (Local Time) from KVNY Reporting Station
Clear Clear  
Wind Chill: 67°   Ceiling: Unl
Heat Index: 67°   Visibility: 10mi
Dew Point: 40°   Wind: 7mph
Humidity: 37%   Direction: 310°NW
Pressure: 29.98"   Gusts: NA
Location:  34.17°N, 118.76°W
Report Text: KVNY 211851Z 31006KT 10SM CLR 19/04 A2998 RMK AO2 SLP145 T01940044
Loading
Personal Weather Stations






























Interactive Weather Map New forecast layout! Learn more

10-Day Weather Forecast

Advertisements
Track Severe Weather on mobile